Wan Hai 510 — 9VJJ8 — position and weather

sailwx.info

Track history (hours):
 
Tides and Currents Weather Stations Pressure Air Temp Water Temp Dewpoint Dewpoint Depression Visibility Wind Speed Wind Dir Waves Ship Positions

Wan Hai 510

Last reported at 2014-Oct-30 08:07 UTC. Time now 2014-Oct-31 21:34 UTC.
Position N 22°13' E 114°10'.

Length 269 m; draft 11.6 m.

Type: Cargo ship. MMSI: 565741000.

Date/timePositionNaut miles runAvg speedWind from/ knotsBaromVisibWave heightAir tempDewpointWater temp
2014-Oct-30 08:07N 22°13' E 114°10'712.3
2014-Oct-30 07:32N 22°19' E 114°05'1212.1
2014-Oct-30 06:34N 22°23' E 113°54'4 3.7
2014-Oct-30 05:33N 22°27' E 113°53'0 0.0
2014-Oct-30 04:28N 22°27' E 113°53'0 0.0
2014-Oct-30 03:28N 22°27' E 113°53'0 0.0
2014-Oct-30 02:28N 22°27' E 113°53'0 0.0
2014-Oct-30 01:28N 22°27' E 113°53'0 0.0
2014-Oct-30 00:28N 22°27' E 113°53'0 0.0
2014-Oct-29 23:28N 22°27' E 113°53'0 0.0
2014-Oct-29 22:28N 22°27' E 113°53'0 0.0
2014-Oct-29 21:28N 22°27' E 113°53'0 0.0
2014-Oct-29 20:28N 22°27' E 113°53'0 0.0
2014-Oct-29 19:33N 22°27' E 113°53'5 5.0
2014-Oct-29 18:33N 22°22' E 113°54'1211.8
2014-Oct-29 17:32N 22°20' E 114°07'1 0.1
2014-Oct-28 23:33N 22°19' E 114°06'32711.3
2014-Oct-27 18:34N 22°32' E 119°59'1413.2
2014-Oct-27 17:30N 22°33' E 120°14'5 5.2
2014-Oct-27 16:32N 22°33' E 120°20'0 0.0
2014-Oct-27 15:27N 22°33' E 120°20'0 0.0
2014-Oct-27 11:27N 22°33' E 120°20'0 0.0
2014-Oct-26 15:33N 22°33' E 120°20'2 1.6
2014-Oct-26 14:33N 22°33' E 120°18'2 1.8
2014-Oct-26 13:33N 22°32' E 120°17'0 0.1
2014-Oct-26 12:26N 22°32' E 120°17'0 0.0
2014-Oct-26 11:32N 22°32' E 120°17'0 0.0
2014-Oct-26 10:32N 22°32' E 120°17'0 0.0
2014-Oct-26 09:26N 22°32' E 120°17'0 0.0
2014-Oct-26 08:20N 22°32' E 120°17'0 0.0
2014-Oct-26 07:32N 22°32' E 120°17'0 0.0
2014-Oct-26 06:26N 22°32' E 120°17'0 0.0
2014-Oct-26 05:26N 22°32' E 120°17'0 0.0
2014-Oct-26 04:32N 22°32' E 120°17'0 0.0
2014-Oct-26 03:32N 22°32' E 120°17'0 0.0
2014-Oct-26 02:26N 22°32' E 120°17'0 0.0
2014-Oct-26 01:27N 22°32' E 120°17'5 5.6
2014-Oct-26 00:33N 22°29' E 120°13'1614.5
2014-Oct-25 23:26N 22°16' E 120°02'1414.6
2014-Oct-25 22:30N 22°05' E 119°53'1414.7
2014-Oct-25 21:32N 21°54' E 119°43'1514.9
2014-Oct-25 20:32N 21°42' E 119°34'  
2014-Oct-22 03:25N 01°16' E 103°51'0 0.0
2014-Oct-22 02:19N 01°16' E 103°51'0 0.0
2014-Oct-22 01:13N 01°16' E 103°51'0 0.0
2014-Oct-22 00:31N 01°16' E 103°51'0 0.0
2014-Oct-21 22:31N 01°16' E 103°51'0 0.0
2014-Oct-21 21:22N 01°16' E 103°51'0 0.0
2014-Oct-21 20:25N 01°16' E 103°51'0 0.0
2014-Oct-21 18:31N 01°16' E 103°51'0 0.5
2014-Oct-21 17:33N 01°15' E 103°51'4 3.8
2014-Oct-21 16:33N 01°13' E 103°54'6 5.9
2014-Oct-21 15:33N 01°10' E 103°48'7 6.5
2014-Oct-21 14:30N 01°05' E 103°43'  
Track history (hours):
 
Tides and Currents Weather Stations Pressure Air Temp Water Temp Dewpoint Dewpoint Depression Visibility Wind Speed Wind Dir Waves Ship Positions

Wan Hai 510

Last reported at 2014-Oct-30 08:07 UTC. Time now 2014-Oct-31 21:34 UTC.
Position N 22°13' E 114°10'.

Length 269 m; draft 11.6 m.

Type: Cargo ship. MMSI: 565741000.

Date/timePositionNaut miles runAvg speedWind from/ knotsBaromVisibWave heightAir tempDewpointWater temp
2014-Oct-30 08:07N 22°13' E 114°10'712.3
2014-Oct-30 07:32N 22°19' E 114°05'1212.1
2014-Oct-30 06:34N 22°23' E 113°54'4 3.7
2014-Oct-30 05:33N 22°27' E 113°53'0 0.0
2014-Oct-30 04:28N 22°27' E 113°53'0 0.0
2014-Oct-30 03:28N 22°27' E 113°53'0 0.0
2014-Oct-30 02:28N 22°27' E 113°53'0 0.0
2014-Oct-30 01:28N 22°27' E 113°53'0 0.0
2014-Oct-30 00:28N 22°27' E 113°53'0 0.0
2014-Oct-29 23:28N 22°27' E 113°53'0 0.0
2014-Oct-29 22:28N 22°27' E 113°53'0 0.0
2014-Oct-29 21:28N 22°27' E 113°53'0 0.0
2014-Oct-29 20:28N 22°27' E 113°53'0 0.0
2014-Oct-29 19:33N 22°27' E 113°53'5 5.0
2014-Oct-29 18:33N 22°22' E 113°54'1211.8
2014-Oct-29 17:32N 22°20' E 114°07'1 0.1
2014-Oct-28 23:33N 22°19' E 114°06'32711.3
2014-Oct-27 18:34N 22°32' E 119°59'1413.2
2014-Oct-27 17:30N 22°33' E 120°14'5 5.2
2014-Oct-27 16:32N 22°33' E 120°20'0 0.0
2014-Oct-27 15:27N 22°33' E 120°20'0 0.0
2014-Oct-27 11:27N 22°33' E 120°20'0 0.0
2014-Oct-26 15:33N 22°33' E 120°20'2 1.6
2014-Oct-26 14:33N 22°33' E 120°18'2 1.8
2014-Oct-26 13:33N 22°32' E 120°17'0 0.1
2014-Oct-26 12:26N 22°32' E 120°17'0 0.0
2014-Oct-26 11:32N 22°32' E 120°17'0 0.0
2014-Oct-26 10:32N 22°32' E 120°17'0 0.0
2014-Oct-26 09:26N 22°32' E 120°17'0 0.0
2014-Oct-26 08:20N 22°32' E 120°17'0 0.0
2014-Oct-26 07:32N 22°32' E 120°17'0 0.0
2014-Oct-26 06:26N 22°32' E 120°17'0 0.0
2014-Oct-26 05:26N 22°32' E 120°17'0 0.0
2014-Oct-26 04:32N 22°32' E 120°17'0 0.0
2014-Oct-26 03:32N 22°32' E 120°17'0 0.0
2014-Oct-26 02:26N 22°32' E 120°17'0 0.0
2014-Oct-26 01:27N 22°32' E 120°17'5 5.6
2014-Oct-26 00:33N 22°29' E 120°13'1614.5
2014-Oct-25 23:26N 22°16' E 120°02'1414.6
2014-Oct-25 22:30N 22°05' E 119°53'1414.7
2014-Oct-25 21:32N 21°54' E 119°43'1514.9
2014-Oct-25 20:32N 21°42' E 119°34'  
2014-Oct-22 03:25N 01°16' E 103°51'0 0.0
2014-Oct-22 02:19N 01°16' E 103°51'0 0.0
2014-Oct-22 01:13N 01°16' E 103°51'0 0.0
2014-Oct-22 00:31N 01°16' E 103°51'0 0.0
2014-Oct-21 22:31N 01°16' E 103°51'0 0.0
2014-Oct-21 21:22N 01°16' E 103°51'0 0.0
2014-Oct-21 20:25N 01°16' E 103°51'0 0.0
2014-Oct-21 18:31N 01°16' E 103°51'0 0.5
2014-Oct-21 17:33N 01°15' E 103°51'4 3.8
2014-Oct-21 16:33N 01°13' E 103°54'6 5.9
2014-Oct-21 15:33N 01°10' E 103°48'7 6.5
2014-Oct-21 14:30N 01°05' E 103°43'  

Dump ship's entire track history